Galesburg, IL (61401)

8:10 PM CDT on April 30, 2017 (GMT -0500)
N9VPV | | Change Station
Active Advisory: Flood Warning

Elev 777 ft 40.95 °N, 90.39 °W | Updated 11 seconds ago

Overcast
Overcast
52.3 °F
Feels Like 52.3 °F
N
6.0
Wind Variable Wind from NE
Gusts 8.0 mph

Today
High -- | Low -- °F
--% Chance of Precip.
Yesterday
High -- | Low -- °F
Precip. -- in
Pressure 29.48 in
Visibility 4.0 miles
Clouds Overcast 200 ft
Dew Point 51 °F
Humidity 96%
Rainfall 0.09 in
Snow Depth Not available.
6:00 AM 7:57 PM
Waxing Crescent, 27% visible
METAR KGBG 010055Z AUTO 09010G16KT 4SM -VCTSRA OVC002 12/12 A2948 RMK AO2 LTG DSNT ALQS P0001 T01150115
Pressure 29.48 in
Visibility 4.0 miles
Clouds Overcast 200 ft
Dew Point 51 °F
Humidity 96%
Rainfall 0.09 in
Snow Depth Not available.
6:00 AM 7:57 PM
Waxing Crescent, 27% visible
METAR KGBG 010055Z AUTO 09010G16KT 4SM -VCTSRA OVC002 12/12 A2948 RMK AO2 LTG DSNT ALQS P0001 T01150115

Get Your Daily Forecast Email!

Thanks for signing up!

Be on the lookout for a verification email in your inbox.

You'll start receiving severe weather alerts in your inbox..

×

10-Day Weather Forecast

Almanac

Astronomy

Apr. 30, 2017 Rise Set
Actual Time
Civil Twilight
Nautical Twilight
Astronomical Twilight
Moon
Length of Visible Light
Length of Day
Tomorrow will be .
, % of the Moon is Illuminated

Today's Extremes

State Highs State Lows

Community

WunderPhotos

WunderBlog® & News

Nearby

Air Quality

  Air Quality AQ Index Pollutant
Not available.

Snow Depth

Station Depth Elevation

Earthquake Activity

City Distance Mag. Time & Date
Minimum magnitude displayed is 2.5.

Coastal Water Temperatures

Place Temperature

Stations

Nearby Weather Stations

Station Location Temp. Windchill Dew Point Humidity Wind Precip. Elev Updated Type
                   

Watches & Warnings

Flood Warning
Issued: 10:26 AM CDT Apr. 30, 2017 – National Weather Service

The Flood Warning continues for
the spoon river at London Mills.
* From this morning until Wednesday evening.
* At 945 am Sunday the stage was 16.9 feet.
* Flood stage is 15.0 feet.
* Minor flooding is occurring and minor flooding is forecast.
* Forecast... the river will continue rising to near 19.4 feet by
tomorrow afternoon. The river will fall below flood stage Wednesday
afternoon.



                  Fld observed forecast 6am
location stg stg day time Mon Tue Wed

Spoon river
London Mills 15 16.9 sun 10 am 19.2 18.7 16.1



Lat... Lon 4081 9020 4079 9012 4070 9024 4058 9027
      4059 9036 4071 9032